Minerva Astra — 9HDW7 — position and weather

sailwx.info

Track history (hours):
 
Tides and Currents Weather Stations Pressure Air Temp Water Temp Dewpoint Dewpoint Depression Visibility Wind Speed Wind Dir Waves Ship Positions

Minerva Astra

Last reported at 2017-Dec-04 08:32 UTC. Time now 2017-Dec-12 06:42 UTC.
Position N 48°57' W 007°50'.

Length 248 m; draft 11.7 m.

Type: Ship (hazmat cat A). MMSI: 256703000.

Date/timePositionNaut miles runAvg speedWind from/ knotsBaromVisibWave heightAir tempDewpointWater temp
2017-Dec-04 08:32N 48°57' W 007°50'113.7
2017-Dec-04 08:30N 48°57' W 007°49'612.7
2017-Dec-04 08:01N 48°60' W 007°40'712.4
2017-Dec-04 07:26N 49°03' W 007°30'612.0
2017-Dec-04 06:56N 49°05' W 007°22'611.9
2017-Dec-04 06:27N 49°07' W 007°14'611.5
2017-Dec-04 05:57N 49°09' W 007°05'811.3
2017-Dec-04 05:15N 49°12' W 006°54'910.8
2017-Dec-04 04:24N 49°16' W 006°41'8111.9
2017-Dec-03 21:35N 49°41' W 004°42'113.1
2017-Dec-03 21:30N 49°41' W 004°41'713.0
2017-Dec-03 21:00N 49°42' W 004°31'612.6
2017-Dec-03 20:30N 49°44' W 004°21'612.2
2017-Dec-03 20:00N 49°46' W 004°12'711.6
2017-Dec-03 19:23N 49°48' W 004°02'511.1
2017-Dec-03 18:56N 49°49' W 003°54'510.6
2017-Dec-03 18:30N 49°50' W 003°47'610.3
2017-Dec-03 17:58N 49°52' W 003°39'510.1
2017-Dec-03 17:30N 49°53' W 003°32'510.2
2017-Dec-03 17:00N 49°54' W 003°25'510.5
2017-Dec-03 16:30N 49°56' W 003°17'510.8
2017-Dec-03 16:00N 49°57' W 003°09'611.6
2017-Dec-03 15:30N 49°59' W 003°00'612.4
2017-Dec-03 15:00N 50°01' W 002°51'813.6
2017-Dec-03 14:24N 50°03' W 002°38'714.6
2017-Dec-03 13:55N 50°05' W 002°28'1315.3
2017-Dec-03 13:06N 50°08' W 002°09'115.7
2017-Dec-03 13:00N 50°08' W 002°07'815.7
2017-Dec-03 12:31N 50°11' W 001°55'815.5
2017-Dec-03 12:01N 50°13' W 001°44'714.6
2017-Dec-03 11:30N 50°15' W 001°33'713.7
2017-Dec-03 11:00N 50°17' W 001°22'3910.0
2017-Dec-03 07:04N 50°27' W 000°22'1 9.5
2017-Dec-03 07:00N 50°27' W 000°21'5 9.7
2017-Dec-03 06:30N 50°28' W 000°14'610.5
2017-Dec-03 05:59N 50°30' W 000°06'511.2
2017-Dec-03 05:31N 50°32' E 000°02'611.9
2017-Dec-03 05:00N 50°33' E 000°11'612.6
2017-Dec-03 04:30N 50°35' E 000°21'713.2
2017-Dec-03 04:00N 50°37' E 000°31'713.3
2017-Dec-03 03:30N 50°40' E 000°40'713.1
2017-Dec-03 03:00N 50°44' E 000°48'612.7
2017-Dec-03 02:30N 50°47' E 000°57'612.2
2017-Dec-03 02:00N 50°51' E 001°05'611.6
2017-Dec-03 01:28N 50°55' E 001°11'510.8
2017-Dec-03 01:00N 50°59' E 001°17'5 9.8
2017-Dec-03 00:30N 51°02' E 001°23'5 9.2
2017-Dec-03 00:00N 51°05' E 001°29'4 8.3
2017-Dec-02 23:30N 51°08' E 001°34'4 8.3
2017-Dec-02 23:00N 51°10' E 001°39'4 9.0
2017-Dec-02 22:31N 51°13' E 001°45'510.1
2017-Dec-02 22:00N 51°17' E 001°49'611.2
2017-Dec-02 21:30N 51°22' E 001°53'612.2
2017-Dec-02 21:01N 51°27' E 001°58'713.1
2017-Dec-02 20:31N 51°32' E 002°05'713.4
2017-Dec-02 20:00N 51°37' E 002°12'713.6
2017-Dec-02 19:31N 51°42' E 002°20'43511.6
2017-Dec-01 05:59N 57°57' E 008°41'612.3
2017-Dec-01 05:30N 58°02' E 008°48'612.6
2017-Dec-01 05:00N 58°07' E 008°55'612.7
2017-Dec-01 04:30N 58°12' E 009°03'612.4
2017-Dec-01 04:00N 58°16' E 009°11'2912.4
2017-Dec-01 01:38N 58°38' E 009°50'212.3
2017-Dec-01 01:30N 58°39' E 009°52'612.5
2017-Dec-01 01:00N 58°43' E 010°01'612.3
2017-Dec-01 00:30N 58°47' E 010°10'612.2
2017-Dec-01 00:00N 58°51' E 010°19'612.3
2017-Nov-30 23:30N 58°55' E 010°28'611.4
2017-Nov-30 23:00N 58°60' E 010°35'510.2
2017-Nov-30 22:30N 59°05' E 010°34'510.8
2017-Nov-30 22:00N 59°10' E 010°38'612.6
2017-Nov-30 21:31N 59°16' E 010°36'4 7.5
2017-Nov-30 21:00N 59°19' E 010°33'0 0.7
2017-Nov-30 20:30N 59°20' E 010°33'1 1.8
2017-Nov-30 20:00N 59°20' E 010°31'0 0.4
2017-Nov-30 19:29N 59°20' E 010°31'0 0.0
2017-Nov-30 18:59N 59°20' E 010°31'0 0.0
2017-Nov-30 18:29N 59°20' E 010°31'0 0.0
2017-Nov-30 17:59N 59°20' E 010°31'0 0.0
2017-Nov-30 17:29N 59°20' E 010°31'0 0.0
2017-Nov-30 16:59N 59°20' E 010°31'0 0.0
2017-Nov-30 16:29N 59°20' E 010°31'0 0.0
2017-Nov-30 15:59N 59°20' E 010°31'0 0.0
2017-Nov-30 15:29N 59°20' E 010°31'0 0.0
2017-Nov-30 14:59N 59°20' E 010°31'0 0.0
2017-Nov-30 14:29N 59°20' E 010°31'0 0.0
2017-Nov-30 13:59N 59°20' E 010°31'0 0.0
2017-Nov-30 13:29N 59°20' E 010°31'0 0.0
2017-Nov-30 12:59N 59°20' E 010°31'0 0.0
2017-Nov-30 12:29N 59°20' E 010°31'0 0.0
2017-Nov-30 11:59N 59°20' E 010°31'0 0.0
2017-Nov-30 11:29N 59°20' E 010°31'0 0.0
2017-Nov-30 10:59N 59°20' E 010°31'0 0.0
2017-Nov-30 10:29N 59°20' E 010°31'0 0.0
2017-Nov-30 09:59N 59°20' E 010°31'0 0.0
2017-Nov-30 09:29N 59°20' E 010°31'0 0.0
2017-Nov-30 08:59N 59°20' E 010°31'0 0.0
2017-Nov-30 08:29N 59°20' E 010°31'0 0.0
2017-Nov-30 07:59N 59°20' E 010°31'0 0.0
2017-Nov-30 07:29N 59°20' E 010°31'0 0.0
2017-Nov-30 06:59N 59°20' E 010°31'0 0.0
2017-Nov-30 06:29N 59°20' E 010°31'0 0.0
2017-Nov-30 05:59N 59°20' E 010°31'0 0.0
2017-Nov-30 05:29N 59°20' E 010°31'0 0.0
2017-Nov-30 04:59N 59°20' E 010°31'0 0.0
2017-Nov-30 04:29N 59°20' E 010°31'0 0.0
2017-Nov-30 03:59N 59°20' E 010°31'0 0.0
2017-Nov-30 03:29N 59°20' E 010°31'0 0.0
2017-Nov-30 02:59N 59°20' E 010°31'0 0.0
2017-Nov-30 02:29N 59°20' E 010°31'0 0.0
2017-Nov-30 01:59N 59°20' E 010°31'0 0.0
2017-Nov-30 01:29N 59°20' E 010°31'0 0.0
2017-Nov-30 00:59N 59°20' E 010°31'0 0.0
2017-Nov-30 00:29N 59°20' E 010°31'0 0.0
2017-Nov-29 23:59N 59°20' E 010°31'0 0.0
2017-Nov-29 23:29N 59°20' E 010°31'0 0.0
2017-Nov-29 22:59N 59°20' E 010°31'0 0.0
2017-Nov-29 22:29N 59°20' E 010°31'0 0.0
2017-Nov-29 21:59N 59°20' E 010°31'0 0.0
2017-Nov-29 21:29N 59°20' E 010°31'0 0.0
2017-Nov-29 20:59N 59°20' E 010°31'0 0.0
2017-Nov-29 20:29N 59°20' E 010°31'0 0.0
2017-Nov-29 19:59N 59°20' E 010°31'0 0.0
2017-Nov-29 19:29N 59°20' E 010°31'0 0.0
2017-Nov-29 18:59N 59°20' E 010°31'0 0.0
2017-Nov-29 18:29N 59°20' E 010°31'0 0.0
2017-Nov-29 17:59N 59°20' E 010°31'0 0.0
2017-Nov-29 17:29N 59°20' E 010°31'0 0.0
2017-Nov-29 16:59N 59°20' E 010°31'0 0.0
2017-Nov-29 16:29N 59°20' E 010°31'0 0.0
2017-Nov-29 15:59N 59°20' E 010°31'0 0.7
2017-Nov-29 15:31N 59°20' E 010°31'0 0.2
2017-Nov-29 15:00N 59°20' E 010°31'0 0.0
2017-Nov-29 14:30N 59°20' E 010°31'0 0.0
2017-Nov-29 14:00N 59°20' E 010°31'0 0.0
2017-Nov-29 13:30N 59°20' E 010°31'0 0.0
2017-Nov-29 13:00N 59°20' E 010°31'0 0.0
2017-Nov-29 12:30N 59°20' E 010°31'0 0.0
2017-Nov-29 12:00N 59°20' E 010°31'0 0.0
2017-Nov-29 11:30N 59°20' E 010°31'0 0.0
2017-Nov-29 11:00N 59°20' E 010°31'0 0.0
2017-Nov-29 10:30N 59°20' E 010°31'0 0.0
2017-Nov-29 10:00N 59°20' E 010°31'0 0.0
2017-Nov-29 09:30N 59°20' E 010°31'0 0.0
2017-Nov-29 09:00N 59°20' E 010°31'0 0.0
2017-Nov-29 08:30N 59°20' E 010°31'0 0.0
2017-Nov-29 08:00N 59°20' E 010°31'0 0.0
2017-Nov-29 07:30N 59°20' E 010°31'0 0.0
2017-Nov-29 07:00N 59°20' E 010°31'0 0.0
2017-Nov-29 06:30N 59°20' E 010°31'0 0.0
2017-Nov-29 06:00N 59°20' E 010°31'0 0.0
2017-Nov-29 05:30N 59°20' E 010°31'0 0.0
2017-Nov-29 05:00N 59°20' E 010°31'0 0.0
2017-Nov-29 04:30N 59°20' E 010°31'0 0.0
2017-Nov-29 04:00N 59°20' E 010°31'0 0.0
2017-Nov-29 03:30N 59°20' E 010°31'0 0.1
2017-Nov-29 03:00N 59°20' E 010°31'0 0.0
2017-Nov-29 02:30N 59°20' E 010°31'0 0.0
2017-Nov-29 02:00N 59°20' E 010°31'0 0.0
2017-Nov-29 01:30N 59°20' E 010°31'0 0.0
2017-Nov-29 01:00N 59°20' E 010°31'0 0.0
2017-Nov-29 00:30N 59°20' E 010°31'0 0.1
2017-Nov-29 00:00N 59°20' E 010°31'0 0.0
2017-Nov-28 23:30N 59°20' E 010°31'0 0.0
2017-Nov-28 23:00N 59°20' E 010°31'0 0.0
2017-Nov-28 22:30N 59°20' E 010°31'0 0.0
2017-Nov-28 22:00N 59°20' E 010°31'0 0.0
2017-Nov-28 21:30N 59°20' E 010°31'0 0.0
2017-Nov-28 21:00N 59°20' E 010°31'0 0.0
2017-Nov-28 20:30N 59°20' E 010°31'0 0.1
2017-Nov-28 20:00N 59°20' E 010°31'0 0.0
2017-Nov-28 19:30N 59°20' E 010°31'0 0.0
2017-Nov-28 19:00N 59°20' E 010°31'0 0.0
2017-Nov-28 18:30N 59°20' E 010°31'0 0.0
2017-Nov-28 18:00N 59°20' E 010°31'0 0.0
2017-Nov-28 17:30N 59°20' E 010°31'0 0.0
2017-Nov-28 17:00N 59°20' E 010°31'0 0.0
2017-Nov-28 16:30N 59°20' E 010°31'0 0.0
2017-Nov-28 16:00N 59°20' E 010°31'0 0.0
2017-Nov-28 15:00N 59°20' E 010°31'0 0.0
2017-Nov-28 14:30N 59°20' E 010°31'0 0.0
2017-Nov-28 14:00N 59°20' E 010°31'0 0.0
2017-Nov-28 13:30N 59°20' E 010°31'0 0.0
2017-Nov-28 13:00N 59°20' E 010°31'0 0.0
2017-Nov-28 12:30N 59°20' E 010°31'0 0.0
2017-Nov-28 12:00N 59°20' E 010°31'0 0.0
2017-Nov-28 11:30N 59°20' E 010°31'0 0.0
2017-Nov-28 11:00N 59°20' E 010°31'0 0.0
2017-Nov-28 10:30N 59°20' E 010°31'0 0.0
2017-Nov-28 10:00N 59°20' E 010°31'0 0.1
2017-Nov-28 09:30N 59°20' E 010°31'0 0.0
2017-Nov-28 09:00N 59°20' E 010°31'0 0.0
2017-Nov-28 08:30N 59°20' E 010°31'0 0.0
2017-Nov-28 08:00N 59°20' E 010°31'0 0.0
2017-Nov-28 07:30N 59°20' E 010°31'0 0.0
2017-Nov-28 07:00N 59°20' E 010°31'0 0.0
2017-Nov-28 06:30N 59°20' E 010°31'0 0.0
2017-Nov-28 06:00N 59°20' E 010°31'0 0.0
2017-Nov-28 05:30N 59°20' E 010°31'0 0.0
2017-Nov-28 04:30N 59°20' E 010°31'0 0.0
2017-Nov-28 04:00N 59°20' E 010°31'0 0.0
2017-Nov-28 03:30N 59°20' E 010°31'0 0.0
2017-Nov-28 03:00N 59°20' E 010°31'0 0.0
2017-Nov-28 02:30N 59°20' E 010°31'0 0.0
2017-Nov-28 02:00N 59°20' E 010°31'0 0.0
2017-Nov-28 01:30N 59°20' E 010°31'0 0.0
2017-Nov-28 01:00N 59°20' E 010°31'0 0.0
2017-Nov-28 00:30N 59°20' E 010°31'0 0.1
2017-Nov-28 00:00N 59°20' E 010°31'0 0.0
2017-Nov-27 23:30N 59°20' E 010°31'0 0.1
2017-Nov-27 23:00N 59°20' E 010°31'0 0.0
2017-Nov-27 22:30N 59°20' E 010°31'0 0.0
2017-Nov-27 22:00N 59°20' E 010°31'0 0.0
2017-Nov-27 21:30N 59°20' E 010°31'0 0.0
2017-Nov-27 21:00N 59°20' E 010°31'0 0.0
2017-Nov-27 20:30N 59°20' E 010°31'0 0.0
2017-Nov-27 20:00N 59°20' E 010°31'0 0.1
2017-Nov-27 19:30N 59°20' E 010°31'0 0.0
2017-Nov-27 19:00N 59°20' E 010°31'0 0.1
2017-Nov-27 18:30N 59°20' E 010°31'0 0.0
2017-Nov-27 18:00N 59°20' E 010°31'0 0.0
2017-Nov-27 17:30N 59°20' E 010°31'0 0.0
2017-Nov-27 17:00N 59°20' E 010°31'0 0.0
2017-Nov-27 16:30N 59°20' E 010°31'0 0.1
2017-Nov-27 16:00N 59°20' E 010°31'0 0.0
2017-Nov-27 15:30N 59°20' E 010°31'0 0.1
2017-Nov-27 15:00N 59°20' E 010°31'0 0.0
2017-Nov-27 14:30N 59°20' E 010°31'0 0.0
2017-Nov-27 14:00N 59°20' E 010°31'0 0.1
2017-Nov-27 13:30N 59°20' E 010°31'0 0.0
2017-Nov-27 13:00N 59°20' E 010°31'0 0.0
2017-Nov-27 12:30N 59°20' E 010°31'0 0.0
2017-Nov-27 12:00N 59°20' E 010°31'0 0.0
2017-Nov-27 11:30N 59°20' E 010°31'0 0.0
2017-Nov-27 11:00N 59°20' E 010°31'0 0.0
2017-Nov-27 10:30N 59°20' E 010°31'0 0.0
2017-Nov-27 10:00N 59°20' E 010°31'0 0.0
2017-Nov-27 09:30N 59°20' E 010°31'0 0.1
2017-Nov-27 09:00N 59°20' E 010°31'0 0.0
2017-Nov-27 08:30N 59°20' E 010°31'0 0.0
2017-Nov-27 08:00N 59°20' E 010°31'0 0.0
2017-Nov-27 07:30N 59°20' E 010°31'0 0.0
2017-Nov-27 07:00N 59°20' E 010°31'0 0.1
2017-Nov-27 06:30N 59°20' E 010°31'0 0.0
2017-Nov-27 06:00N 59°20' E 010°31'0 0.0
2017-Nov-27 05:30N 59°20' E 010°31'0 0.0
2017-Nov-27 05:00N 59°20' E 010°31'0 0.0
2017-Nov-27 04:30N 59°20' E 010°31'0 0.1
2017-Nov-27 04:00N 59°20' E 010°31'0 0.1
2017-Nov-27 03:30N 59°20' E 010°31'0 0.0
2017-Nov-27 03:00N 59°20' E 010°31'0 0.1
2017-Nov-27 02:30N 59°20' E 010°31'0 0.1
2017-Nov-27 02:00N 59°20' E 010°31'0 0.1
2017-Nov-27 01:30N 59°20' E 010°31'0 0.0
2017-Nov-27 01:00N 59°20' E 010°31'0 0.0
2017-Nov-27 00:30N 59°20' E 010°31'0 0.0
2017-Nov-27 00:00N 59°20' E 010°31'0 0.1
2017-Nov-26 23:30N 59°20' E 010°31'0 0.1
2017-Nov-26 23:00N 59°20' E 010°31'0 0.0
2017-Nov-26 22:30N 59°20' E 010°31'0 0.0
2017-Nov-26 22:00N 59°20' E 010°31'0 0.0
2017-Nov-26 21:30N 59°20' E 010°31'0 0.0
2017-Nov-26 21:00N 59°20' E 010°31'0 0.0
2017-Nov-26 20:30N 59°20' E 010°31'0 0.0
2017-Nov-26 20:00N 59°20' E 010°31'0 0.0
2017-Nov-26 19:30N 59°20' E 010°31'0 0.0
2017-Nov-26 19:00N 59°20' E 010°31'0 0.0
2017-Nov-26 18:30N 59°20' E 010°31'0 0.0
2017-Nov-26 18:00N 59°20' E 010°31'0 0.1
2017-Nov-26 17:30N 59°20' E 010°31'0 0.1
2017-Nov-26 17:00N 59°20' E 010°31'0 0.1
2017-Nov-26 16:30N 59°20' E 010°31'0 0.0
2017-Nov-26 16:00N 59°20' E 010°31'0 0.0
2017-Nov-26 15:30N 59°20' E 010°31'0 0.0
2017-Nov-26 15:00N 59°20' E 010°31'0 0.0
2017-Nov-26 14:30N 59°20' E 010°31'0 0.0
2017-Nov-26 14:00N 59°20' E 010°31'0 0.0
2017-Nov-26 13:30N 59°20' E 010°31'0 0.1
2017-Nov-26 13:00N 59°20' E 010°31'0 0.1
2017-Nov-26 12:30N 59°20' E 010°31'0 0.1
2017-Nov-26 12:00N 59°20' E 010°31'0 0.1
2017-Nov-26 11:30N 59°20' E 010°31'0 0.0
2017-Nov-26 11:00N 59°20' E 010°31'0 0.0
2017-Nov-26 10:30N 59°20' E 010°31'0 0.0
2017-Nov-26 10:00N 59°20' E 010°31'0 0.0
2017-Nov-26 09:30N 59°20' E 010°31'0 0.1
2017-Nov-26 09:00N 59°20' E 010°31'0 0.1
2017-Nov-26 08:30N 59°20' E 010°31'0 0.0
2017-Nov-26 08:00N 59°20' E 010°31'0 0.0
2017-Nov-26 07:30N 59°20' E 010°31'0 0.1
2017-Nov-26 07:00N 59°20' E 010°31'0 0.0
2017-Nov-26 06:30N 59°20' E 010°31'0 0.0
2017-Nov-26 06:00N 59°20' E 010°31'0 0.0
2017-Nov-26 05:30N 59°20' E 010°31'0 0.0
2017-Nov-26 05:00N 59°20' E 010°31'0 0.0
2017-Nov-26 04:30N 59°20' E 010°31'0 0.1
2017-Nov-26 04:00N 59°20' E 010°31'0 0.1
2017-Nov-26 03:30N 59°20' E 010°31'0 0.1
2017-Nov-26 03:00N 59°20' E 010°31'0 0.1
2017-Nov-26 02:30N 59°20' E 010°31'0 0.0
2017-Nov-26 02:00N 59°20' E 010°31'0 0.0
2017-Nov-26 01:30N 59°20' E 010°31'0 0.0
2017-Nov-26 01:00N 59°20' E 010°31'0 0.1
2017-Nov-26 00:30N 59°20' E 010°31'0 0.0
2017-Nov-26 00:00N 59°20' E 010°31'0 0.0
2017-Nov-25 23:30N 59°20' E 010°31'0 0.1
2017-Nov-25 23:00N 59°20' E 010°31'0 0.0
2017-Nov-25 22:30N 59°20' E 010°31'0 0.1
2017-Nov-25 22:00N 59°20' E 010°31'0 0.0
2017-Nov-25 21:30N 59°20' E 010°31'0 0.0
2017-Nov-25 21:00N 59°20' E 010°31'0 0.0
2017-Nov-25 20:30N 59°20' E 010°31'0 0.0
2017-Nov-25 20:00N 59°20' E 010°31'0 0.0
2017-Nov-25 19:30N 59°20' E 010°31'0 0.0
2017-Nov-25 19:00N 59°20' E 010°31'0 0.0
2017-Nov-25 18:30N 59°20' E 010°31'0 0.0
2017-Nov-25 18:00N 59°20' E 010°31'0 0.0
2017-Nov-25 17:30N 59°20' E 010°31'0 0.0
2017-Nov-25 17:00N 59°20' E 010°31'0 0.0
2017-Nov-25 16:30N 59°20' E 010°31'0 0.0
2017-Nov-25 16:00N 59°20' E 010°31'0 0.0
2017-Nov-25 15:30N 59°20' E 010°31'0 0.0
2017-Nov-25 15:00N 59°20' E 010°31'0 0.0
2017-Nov-25 14:30N 59°20' E 010°31'0 0.1
2017-Nov-25 14:00N 59°20' E 010°31'0 0.1
2017-Nov-25 13:30N 59°20' E 010°31'0 0.1
2017-Nov-25 13:00N 59°20' E 010°31'0 0.1
2017-Nov-25 12:30N 59°20' E 010°31'0 0.1
2017-Nov-25 12:00N 59°20' E 010°31'0 0.0
2017-Nov-25 11:30N 59°20' E 010°31'0 0.0
2017-Nov-25 11:00N 59°20' E 010°31'0 0.0
2017-Nov-25 10:30N 59°20' E 010°31'0 0.0
2017-Nov-25 10:00N 59°20' E 010°31'0 0.1
2017-Nov-25 09:30N 59°20' E 010°31'2 3.1
2017-Nov-25 09:00N 59°19' E 010°33'510.3
2017-Nov-25 08:30N 59°14' E 010°37'510.8
2017-Nov-25 08:00N 59°09' E 010°39'5 9.4
2017-Nov-25 07:30N 59°04' E 010°35'2 4.5
2017-Nov-25 07:00N 59°02' E 010°36'2 4.4
2017-Nov-25 06:30N 59°00' E 010°36'4 8.9
2017-Nov-25 06:00N 58°56' E 010°36'4 7.6
2017-Nov-25 05:30N 58°52' E 010°37'612.2
2017-Nov-25 05:00N 58°46' E 010°38'612.4
2017-Nov-25 04:30N 58°40' E 010°39'612.6
2017-Nov-25 04:00N 58°33' E 010°41'612.5
2017-Nov-25 03:30N 58°27' E 010°42'612.7
2017-Nov-25 03:00N 58°21' E 010°44'1812.0
2017-Nov-25 01:32N 58°03' E 010°48'111.9
2017-Nov-25 01:29N 58°03' E 010°48'611.9
2017-Nov-25 00:58N 57°57' E 010°49'611.7
2017-Nov-25 00:29N 57°51' E 010°51'611.6
2017-Nov-24 23:58N 57°45' E 010°53'4 7.8
2017-Nov-24 23:29N 57°42' E 010°58'610.6
2017-Nov-24 22:54N 57°38' E 011°06'511.4
2017-Nov-24 22:30N 57°35' E 011°12'611.4
2017-Nov-24 21:59N 57°31' E 011°21'510.5
2017-Nov-24 21:30N 57°27' E 011°27'611.3
2017-Nov-24 21:01N 57°22' E 011°30'611.6
2017-Nov-24 20:30N 57°16' E 011°34'611.8
2017-Nov-24 20:00N 57°11' E 011°37'711.8
2017-Nov-24 19:25N 57°04' E 011°41'511.7
2017-Nov-24 19:00N 56°60' E 011°44'611.8
2017-Nov-24 18:28N 56°54' E 011°48'  
Track history (hours):
 
Tides and Currents Weather Stations Pressure Air Temp Water Temp Dewpoint Dewpoint Depression Visibility Wind Speed Wind Dir Waves Ship Positions

Minerva Astra

Last reported at 2017-Dec-04 08:32 UTC. Time now 2017-Dec-12 06:42 UTC.
Position N 48°57' W 007°50'.

Length 248 m; draft 11.7 m.

Type: Ship (hazmat cat A). MMSI: 256703000.

Date/timePositionNaut miles runAvg speedWind from/ knotsBaromVisibWave heightAir tempDewpointWater temp
2017-Dec-04 08:32N 48°57' W 007°50'113.7
2017-Dec-04 08:30N 48°57' W 007°49'612.7
2017-Dec-04 08:01N 48°60' W 007°40'712.4
2017-Dec-04 07:26N 49°03' W 007°30'612.0
2017-Dec-04 06:56N 49°05' W 007°22'611.9
2017-Dec-04 06:27N 49°07' W 007°14'611.5
2017-Dec-04 05:57N 49°09' W 007°05'811.3
2017-Dec-04 05:15N 49°12' W 006°54'910.8
2017-Dec-04 04:24N 49°16' W 006°41'8111.9
2017-Dec-03 21:35N 49°41' W 004°42'113.1
2017-Dec-03 21:30N 49°41' W 004°41'713.0
2017-Dec-03 21:00N 49°42' W 004°31'612.6
2017-Dec-03 20:30N 49°44' W 004°21'612.2
2017-Dec-03 20:00N 49°46' W 004°12'711.6
2017-Dec-03 19:23N 49°48' W 004°02'511.1
2017-Dec-03 18:56N 49°49' W 003°54'510.6
2017-Dec-03 18:30N 49°50' W 003°47'610.3
2017-Dec-03 17:58N 49°52' W 003°39'510.1
2017-Dec-03 17:30N 49°53' W 003°32'510.2
2017-Dec-03 17:00N 49°54' W 003°25'510.5
2017-Dec-03 16:30N 49°56' W 003°17'510.8
2017-Dec-03 16:00N 49°57' W 003°09'611.6
2017-Dec-03 15:30N 49°59' W 003°00'612.4
2017-Dec-03 15:00N 50°01' W 002°51'813.6
2017-Dec-03 14:24N 50°03' W 002°38'714.6
2017-Dec-03 13:55N 50°05' W 002°28'1315.3
2017-Dec-03 13:06N 50°08' W 002°09'115.7
2017-Dec-03 13:00N 50°08' W 002°07'815.7
2017-Dec-03 12:31N 50°11' W 001°55'815.5
2017-Dec-03 12:01N 50°13' W 001°44'714.6
2017-Dec-03 11:30N 50°15' W 001°33'713.7
2017-Dec-03 11:00N 50°17' W 001°22'3910.0
2017-Dec-03 07:04N 50°27' W 000°22'1 9.5
2017-Dec-03 07:00N 50°27' W 000°21'5 9.7
2017-Dec-03 06:30N 50°28' W 000°14'610.5
2017-Dec-03 05:59N 50°30' W 000°06'511.2
2017-Dec-03 05:31N 50°32' E 000°02'611.9
2017-Dec-03 05:00N 50°33' E 000°11'612.6
2017-Dec-03 04:30N 50°35' E 000°21'713.2
2017-Dec-03 04:00N 50°37' E 000°31'713.3
2017-Dec-03 03:30N 50°40' E 000°40'713.1
2017-Dec-03 03:00N 50°44' E 000°48'612.7
2017-Dec-03 02:30N 50°47' E 000°57'612.2
2017-Dec-03 02:00N 50°51' E 001°05'611.6
2017-Dec-03 01:28N 50°55' E 001°11'510.8
2017-Dec-03 01:00N 50°59' E 001°17'5 9.8
2017-Dec-03 00:30N 51°02' E 001°23'5 9.2
2017-Dec-03 00:00N 51°05' E 001°29'4 8.3
2017-Dec-02 23:30N 51°08' E 001°34'4 8.3
2017-Dec-02 23:00N 51°10' E 001°39'4 9.0
2017-Dec-02 22:31N 51°13' E 001°45'510.1
2017-Dec-02 22:00N 51°17' E 001°49'611.2
2017-Dec-02 21:30N 51°22' E 001°53'612.2
2017-Dec-02 21:01N 51°27' E 001°58'713.1
2017-Dec-02 20:31N 51°32' E 002°05'713.4
2017-Dec-02 20:00N 51°37' E 002°12'713.6
2017-Dec-02 19:31N 51°42' E 002°20'43511.6
2017-Dec-01 05:59N 57°57' E 008°41'612.3
2017-Dec-01 05:30N 58°02' E 008°48'612.6
2017-Dec-01 05:00N 58°07' E 008°55'612.7
2017-Dec-01 04:30N 58°12' E 009°03'612.4
2017-Dec-01 04:00N 58°16' E 009°11'2912.4
2017-Dec-01 01:38N 58°38' E 009°50'212.3
2017-Dec-01 01:30N 58°39' E 009°52'612.5
2017-Dec-01 01:00N 58°43' E 010°01'612.3
2017-Dec-01 00:30N 58°47' E 010°10'612.2
2017-Dec-01 00:00N 58°51' E 010°19'612.3
2017-Nov-30 23:30N 58°55' E 010°28'611.4
2017-Nov-30 23:00N 58°60' E 010°35'510.2
2017-Nov-30 22:30N 59°05' E 010°34'510.8
2017-Nov-30 22:00N 59°10' E 010°38'612.6
2017-Nov-30 21:31N 59°16' E 010°36'4 7.5
2017-Nov-30 21:00N 59°19' E 010°33'0 0.7
2017-Nov-30 20:30N 59°20' E 010°33'1 1.8
2017-Nov-30 20:00N 59°20' E 010°31'0 0.4
2017-Nov-30 19:29N 59°20' E 010°31'0 0.0
2017-Nov-30 18:59N 59°20' E 010°31'0 0.0
2017-Nov-30 18:29N 59°20' E 010°31'0 0.0
2017-Nov-30 17:59N 59°20' E 010°31'0 0.0
2017-Nov-30 17:29N 59°20' E 010°31'0 0.0
2017-Nov-30 16:59N 59°20' E 010°31'0 0.0
2017-Nov-30 16:29N 59°20' E 010°31'0 0.0
2017-Nov-30 15:59N 59°20' E 010°31'0 0.0
2017-Nov-30 15:29N 59°20' E 010°31'0 0.0
2017-Nov-30 14:59N 59°20' E 010°31'0 0.0
2017-Nov-30 14:29N 59°20' E 010°31'0 0.0
2017-Nov-30 13:59N 59°20' E 010°31'0 0.0
2017-Nov-30 13:29N 59°20' E 010°31'0 0.0
2017-Nov-30 12:59N 59°20' E 010°31'0 0.0
2017-Nov-30 12:29N 59°20' E 010°31'0 0.0
2017-Nov-30 11:59N 59°20' E 010°31'0 0.0
2017-Nov-30 11:29N 59°20' E 010°31'0 0.0
2017-Nov-30 10:59N 59°20' E 010°31'0 0.0
2017-Nov-30 10:29N 59°20' E 010°31'0 0.0
2017-Nov-30 09:59N 59°20' E 010°31'0 0.0
2017-Nov-30 09:29N 59°20' E 010°31'0 0.0
2017-Nov-30 08:59N 59°20' E 010°31'0 0.0
2017-Nov-30 08:29N 59°20' E 010°31'0 0.0
2017-Nov-30 07:59N 59°20' E 010°31'0 0.0
2017-Nov-30 07:29N 59°20' E 010°31'0 0.0
2017-Nov-30 06:59N 59°20' E 010°31'0 0.0
2017-Nov-30 06:29N 59°20' E 010°31'0 0.0
2017-Nov-30 05:59N 59°20' E 010°31'0 0.0
2017-Nov-30 05:29N 59°20' E 010°31'0 0.0
2017-Nov-30 04:59N 59°20' E 010°31'0 0.0
2017-Nov-30 04:29N 59°20' E 010°31'0 0.0
2017-Nov-30 03:59N 59°20' E 010°31'0 0.0
2017-Nov-30 03:29N 59°20' E 010°31'0 0.0
2017-Nov-30 02:59N 59°20' E 010°31'0 0.0
2017-Nov-30 02:29N 59°20' E 010°31'0 0.0
2017-Nov-30 01:59N 59°20' E 010°31'0 0.0
2017-Nov-30 01:29N 59°20' E 010°31'0 0.0
2017-Nov-30 00:59N 59°20' E 010°31'0 0.0
2017-Nov-30 00:29N 59°20' E 010°31'0 0.0
2017-Nov-29 23:59N 59°20' E 010°31'0 0.0
2017-Nov-29 23:29N 59°20' E 010°31'0 0.0
2017-Nov-29 22:59N 59°20' E 010°31'0 0.0
2017-Nov-29 22:29N 59°20' E 010°31'0 0.0
2017-Nov-29 21:59N 59°20' E 010°31'0 0.0
2017-Nov-29 21:29N 59°20' E 010°31'0 0.0
2017-Nov-29 20:59N 59°20' E 010°31'0 0.0
2017-Nov-29 20:29N 59°20' E 010°31'0 0.0
2017-Nov-29 19:59N 59°20' E 010°31'0 0.0
2017-Nov-29 19:29N 59°20' E 010°31'0 0.0
2017-Nov-29 18:59N 59°20' E 010°31'0 0.0
2017-Nov-29 18:29N 59°20' E 010°31'0 0.0
2017-Nov-29 17:59N 59°20' E 010°31'0 0.0
2017-Nov-29 17:29N 59°20' E 010°31'0 0.0
2017-Nov-29 16:59N 59°20' E 010°31'0 0.0
2017-Nov-29 16:29N 59°20' E 010°31'0 0.0
2017-Nov-29 15:59N 59°20' E 010°31'0 0.7
2017-Nov-29 15:31N 59°20' E 010°31'0 0.2
2017-Nov-29 15:00N 59°20' E 010°31'0 0.0
2017-Nov-29 14:30N 59°20' E 010°31'0 0.0
2017-Nov-29 14:00N 59°20' E 010°31'0 0.0
2017-Nov-29 13:30N 59°20' E 010°31'0 0.0
2017-Nov-29 13:00N 59°20' E 010°31'0 0.0
2017-Nov-29 12:30N 59°20' E 010°31'0 0.0
2017-Nov-29 12:00N 59°20' E 010°31'0 0.0
2017-Nov-29 11:30N 59°20' E 010°31'0 0.0
2017-Nov-29 11:00N 59°20' E 010°31'0 0.0
2017-Nov-29 10:30N 59°20' E 010°31'0 0.0
2017-Nov-29 10:00N 59°20' E 010°31'0 0.0
2017-Nov-29 09:30N 59°20' E 010°31'0 0.0
2017-Nov-29 09:00N 59°20' E 010°31'0 0.0
2017-Nov-29 08:30N 59°20' E 010°31'0 0.0
2017-Nov-29 08:00N 59°20' E 010°31'0 0.0
2017-Nov-29 07:30N 59°20' E 010°31'0 0.0
2017-Nov-29 07:00N 59°20' E 010°31'0 0.0
2017-Nov-29 06:30N 59°20' E 010°31'0 0.0
2017-Nov-29 06:00N 59°20' E 010°31'0 0.0
2017-Nov-29 05:30N 59°20' E 010°31'0 0.0
2017-Nov-29 05:00N 59°20' E 010°31'0 0.0
2017-Nov-29 04:30N 59°20' E 010°31'0 0.0
2017-Nov-29 04:00N 59°20' E 010°31'0 0.0
2017-Nov-29 03:30N 59°20' E 010°31'0 0.1
2017-Nov-29 03:00N 59°20' E 010°31'0 0.0
2017-Nov-29 02:30N 59°20' E 010°31'0 0.0
2017-Nov-29 02:00N 59°20' E 010°31'0 0.0
2017-Nov-29 01:30N 59°20' E 010°31'0 0.0
2017-Nov-29 01:00N 59°20' E 010°31'0 0.0
2017-Nov-29 00:30N 59°20' E 010°31'0 0.1
2017-Nov-29 00:00N 59°20' E 010°31'0 0.0
2017-Nov-28 23:30N 59°20' E 010°31'0 0.0
2017-Nov-28 23:00N 59°20' E 010°31'0 0.0
2017-Nov-28 22:30N 59°20' E 010°31'0 0.0
2017-Nov-28 22:00N 59°20' E 010°31'0 0.0
2017-Nov-28 21:30N 59°20' E 010°31'0 0.0
2017-Nov-28 21:00N 59°20' E 010°31'0 0.0
2017-Nov-28 20:30N 59°20' E 010°31'0 0.1
2017-Nov-28 20:00N 59°20' E 010°31'0 0.0
2017-Nov-28 19:30N 59°20' E 010°31'0 0.0
2017-Nov-28 19:00N 59°20' E 010°31'0 0.0
2017-Nov-28 18:30N 59°20' E 010°31'0 0.0
2017-Nov-28 18:00N 59°20' E 010°31'0 0.0
2017-Nov-28 17:30N 59°20' E 010°31'0 0.0
2017-Nov-28 17:00N 59°20' E 010°31'0 0.0
2017-Nov-28 16:30N 59°20' E 010°31'0 0.0
2017-Nov-28 16:00N 59°20' E 010°31'0 0.0
2017-Nov-28 15:00N 59°20' E 010°31'0 0.0
2017-Nov-28 14:30N 59°20' E 010°31'0 0.0
2017-Nov-28 14:00N 59°20' E 010°31'0 0.0
2017-Nov-28 13:30N 59°20' E 010°31'0 0.0
2017-Nov-28 13:00N 59°20' E 010°31'0 0.0
2017-Nov-28 12:30N 59°20' E 010°31'0 0.0
2017-Nov-28 12:00N 59°20' E 010°31'0 0.0
2017-Nov-28 11:30N 59°20' E 010°31'0 0.0
2017-Nov-28 11:00N 59°20' E 010°31'0 0.0
2017-Nov-28 10:30N 59°20' E 010°31'0 0.0
2017-Nov-28 10:00N 59°20' E 010°31'0 0.1
2017-Nov-28 09:30N 59°20' E 010°31'0 0.0
2017-Nov-28 09:00N 59°20' E 010°31'0 0.0
2017-Nov-28 08:30N 59°20' E 010°31'0 0.0
2017-Nov-28 08:00N 59°20' E 010°31'0 0.0
2017-Nov-28 07:30N 59°20' E 010°31'0 0.0
2017-Nov-28 07:00N 59°20' E 010°31'0 0.0
2017-Nov-28 06:30N 59°20' E 010°31'0 0.0
2017-Nov-28 06:00N 59°20' E 010°31'0 0.0
2017-Nov-28 05:30N 59°20' E 010°31'0 0.0
2017-Nov-28 04:30N 59°20' E 010°31'0 0.0
2017-Nov-28 04:00N 59°20' E 010°31'0 0.0
2017-Nov-28 03:30N 59°20' E 010°31'0 0.0
2017-Nov-28 03:00N 59°20' E 010°31'0 0.0
2017-Nov-28 02:30N 59°20' E 010°31'0 0.0
2017-Nov-28 02:00N 59°20' E 010°31'0 0.0
2017-Nov-28 01:30N 59°20' E 010°31'0 0.0
2017-Nov-28 01:00N 59°20' E 010°31'0 0.0
2017-Nov-28 00:30N 59°20' E 010°31'0 0.1
2017-Nov-28 00:00N 59°20' E 010°31'0 0.0
2017-Nov-27 23:30N 59°20' E 010°31'0 0.1
2017-Nov-27 23:00N 59°20' E 010°31'0 0.0
2017-Nov-27 22:30N 59°20' E 010°31'0 0.0
2017-Nov-27 22:00N 59°20' E 010°31'0 0.0
2017-Nov-27 21:30N 59°20' E 010°31'0 0.0
2017-Nov-27 21:00N 59°20' E 010°31'0 0.0
2017-Nov-27 20:30N 59°20' E 010°31'0 0.0
2017-Nov-27 20:00N 59°20' E 010°31'0 0.1
2017-Nov-27 19:30N 59°20' E 010°31'0 0.0
2017-Nov-27 19:00N 59°20' E 010°31'0 0.1
2017-Nov-27 18:30N 59°20' E 010°31'0 0.0
2017-Nov-27 18:00N 59°20' E 010°31'0 0.0
2017-Nov-27 17:30N 59°20' E 010°31'0 0.0
2017-Nov-27 17:00N 59°20' E 010°31'0 0.0
2017-Nov-27 16:30N 59°20' E 010°31'0 0.1
2017-Nov-27 16:00N 59°20' E 010°31'0 0.0
2017-Nov-27 15:30N 59°20' E 010°31'0 0.1
2017-Nov-27 15:00N 59°20' E 010°31'0 0.0
2017-Nov-27 14:30N 59°20' E 010°31'0 0.0
2017-Nov-27 14:00N 59°20' E 010°31'0 0.1
2017-Nov-27 13:30N 59°20' E 010°31'0 0.0
2017-Nov-27 13:00N 59°20' E 010°31'0 0.0
2017-Nov-27 12:30N 59°20' E 010°31'0 0.0
2017-Nov-27 12:00N 59°20' E 010°31'0 0.0
2017-Nov-27 11:30N 59°20' E 010°31'0 0.0
2017-Nov-27 11:00N 59°20' E 010°31'0 0.0
2017-Nov-27 10:30N 59°20' E 010°31'0 0.0
2017-Nov-27 10:00N 59°20' E 010°31'0 0.0
2017-Nov-27 09:30N 59°20' E 010°31'0 0.1
2017-Nov-27 09:00N 59°20' E 010°31'0 0.0
2017-Nov-27 08:30N 59°20' E 010°31'0 0.0
2017-Nov-27 08:00N 59°20' E 010°31'0 0.0
2017-Nov-27 07:30N 59°20' E 010°31'0 0.0
2017-Nov-27 07:00N 59°20' E 010°31'0 0.1
2017-Nov-27 06:30N 59°20' E 010°31'0 0.0
2017-Nov-27 06:00N 59°20' E 010°31'0 0.0
2017-Nov-27 05:30N 59°20' E 010°31'0 0.0
2017-Nov-27 05:00N 59°20' E 010°31'0 0.0
2017-Nov-27 04:30N 59°20' E 010°31'0 0.1
2017-Nov-27 04:00N 59°20' E 010°31'0 0.1
2017-Nov-27 03:30N 59°20' E 010°31'0 0.0
2017-Nov-27 03:00N 59°20' E 010°31'0 0.1
2017-Nov-27 02:30N 59°20' E 010°31'0 0.1
2017-Nov-27 02:00N 59°20' E 010°31'0 0.1
2017-Nov-27 01:30N 59°20' E 010°31'0 0.0
2017-Nov-27 01:00N 59°20' E 010°31'0 0.0
2017-Nov-27 00:30N 59°20' E 010°31'0 0.0
2017-Nov-27 00:00N 59°20' E 010°31'0 0.1
2017-Nov-26 23:30N 59°20' E 010°31'0 0.1
2017-Nov-26 23:00N 59°20' E 010°31'0 0.0
2017-Nov-26 22:30N 59°20' E 010°31'0 0.0
2017-Nov-26 22:00N 59°20' E 010°31'0 0.0
2017-Nov-26 21:30N 59°20' E 010°31'0 0.0
2017-Nov-26 21:00N 59°20' E 010°31'0 0.0
2017-Nov-26 20:30N 59°20' E 010°31'0 0.0
2017-Nov-26 20:00N 59°20' E 010°31'0 0.0
2017-Nov-26 19:30N 59°20' E 010°31'0 0.0
2017-Nov-26 19:00N 59°20' E 010°31'0 0.0
2017-Nov-26 18:30N 59°20' E 010°31'0 0.0
2017-Nov-26 18:00N 59°20' E 010°31'0 0.1
2017-Nov-26 17:30N 59°20' E 010°31'0 0.1
2017-Nov-26 17:00N 59°20' E 010°31'0 0.1
2017-Nov-26 16:30N 59°20' E 010°31'0 0.0
2017-Nov-26 16:00N 59°20' E 010°31'0 0.0
2017-Nov-26 15:30N 59°20' E 010°31'0 0.0
2017-Nov-26 15:00N 59°20' E 010°31'0 0.0
2017-Nov-26 14:30N 59°20' E 010°31'0 0.0
2017-Nov-26 14:00N 59°20' E 010°31'0 0.0
2017-Nov-26 13:30N 59°20' E 010°31'0 0.1
2017-Nov-26 13:00N 59°20' E 010°31'0 0.1
2017-Nov-26 12:30N 59°20' E 010°31'0 0.1
2017-Nov-26 12:00N 59°20' E 010°31'0 0.1
2017-Nov-26 11:30N 59°20' E 010°31'0 0.0
2017-Nov-26 11:00N 59°20' E 010°31'0 0.0
2017-Nov-26 10:30N 59°20' E 010°31'0 0.0
2017-Nov-26 10:00N 59°20' E 010°31'0 0.0
2017-Nov-26 09:30N 59°20' E 010°31'0 0.1
2017-Nov-26 09:00N 59°20' E 010°31'0 0.1
2017-Nov-26 08:30N 59°20' E 010°31'0 0.0
2017-Nov-26 08:00N 59°20' E 010°31'0 0.0
2017-Nov-26 07:30N 59°20' E 010°31'0 0.1
2017-Nov-26 07:00N 59°20' E 010°31'0 0.0
2017-Nov-26 06:30N 59°20' E 010°31'0 0.0
2017-Nov-26 06:00N 59°20' E 010°31'0 0.0
2017-Nov-26 05:30N 59°20' E 010°31'0 0.0
2017-Nov-26 05:00N 59°20' E 010°31'0 0.0
2017-Nov-26 04:30N 59°20' E 010°31'0 0.1
2017-Nov-26 04:00N 59°20' E 010°31'0 0.1
2017-Nov-26 03:30N 59°20' E 010°31'0 0.1
2017-Nov-26 03:00N 59°20' E 010°31'0 0.1
2017-Nov-26 02:30N 59°20' E 010°31'0 0.0
2017-Nov-26 02:00N 59°20' E 010°31'0 0.0
2017-Nov-26 01:30N 59°20' E 010°31'0 0.0
2017-Nov-26 01:00N 59°20' E 010°31'0 0.1
2017-Nov-26 00:30N 59°20' E 010°31'0 0.0
2017-Nov-26 00:00N 59°20' E 010°31'0 0.0
2017-Nov-25 23:30N 59°20' E 010°31'0 0.1
2017-Nov-25 23:00N 59°20' E 010°31'0 0.0
2017-Nov-25 22:30N 59°20' E 010°31'0 0.1
2017-Nov-25 22:00N 59°20' E 010°31'0 0.0
2017-Nov-25 21:30N 59°20' E 010°31'0 0.0
2017-Nov-25 21:00N 59°20' E 010°31'0 0.0
2017-Nov-25 20:30N 59°20' E 010°31'0 0.0
2017-Nov-25 20:00N 59°20' E 010°31'0 0.0
2017-Nov-25 19:30N 59°20' E 010°31'0 0.0
2017-Nov-25 19:00N 59°20' E 010°31'0 0.0
2017-Nov-25 18:30N 59°20' E 010°31'0 0.0
2017-Nov-25 18:00N 59°20' E 010°31'0 0.0
2017-Nov-25 17:30N 59°20' E 010°31'0 0.0
2017-Nov-25 17:00N 59°20' E 010°31'0 0.0
2017-Nov-25 16:30N 59°20' E 010°31'0 0.0
2017-Nov-25 16:00N 59°20' E 010°31'0 0.0
2017-Nov-25 15:30N 59°20' E 010°31'0 0.0
2017-Nov-25 15:00N 59°20' E 010°31'0 0.0
2017-Nov-25 14:30N 59°20' E 010°31'0 0.1
2017-Nov-25 14:00N 59°20' E 010°31'0 0.1
2017-Nov-25 13:30N 59°20' E 010°31'0 0.1
2017-Nov-25 13:00N 59°20' E 010°31'0 0.1
2017-Nov-25 12:30N 59°20' E 010°31'0 0.1
2017-Nov-25 12:00N 59°20' E 010°31'0 0.0
2017-Nov-25 11:30N 59°20' E 010°31'0 0.0
2017-Nov-25 11:00N 59°20' E 010°31'0 0.0
2017-Nov-25 10:30N 59°20' E 010°31'0 0.0
2017-Nov-25 10:00N 59°20' E 010°31'0 0.1
2017-Nov-25 09:30N 59°20' E 010°31'2 3.1
2017-Nov-25 09:00N 59°19' E 010°33'510.3
2017-Nov-25 08:30N 59°14' E 010°37'510.8
2017-Nov-25 08:00N 59°09' E 010°39'5 9.4
2017-Nov-25 07:30N 59°04' E 010°35'2 4.5
2017-Nov-25 07:00N 59°02' E 010°36'2 4.4
2017-Nov-25 06:30N 59°00' E 010°36'4 8.9
2017-Nov-25 06:00N 58°56' E 010°36'4 7.6
2017-Nov-25 05:30N 58°52' E 010°37'612.2
2017-Nov-25 05:00N 58°46' E 010°38'612.4
2017-Nov-25 04:30N 58°40' E 010°39'612.6
2017-Nov-25 04:00N 58°33' E 010°41'612.5
2017-Nov-25 03:30N 58°27' E 010°42'612.7
2017-Nov-25 03:00N 58°21' E 010°44'1812.0
2017-Nov-25 01:32N 58°03' E 010°48'111.9
2017-Nov-25 01:29N 58°03' E 010°48'611.9
2017-Nov-25 00:58N 57°57' E 010°49'611.7
2017-Nov-25 00:29N 57°51' E 010°51'611.6
2017-Nov-24 23:58N 57°45' E 010°53'4 7.8
2017-Nov-24 23:29N 57°42' E 010°58'610.6
2017-Nov-24 22:54N 57°38' E 011°06'511.4
2017-Nov-24 22:30N 57°35' E 011°12'611.4
2017-Nov-24 21:59N 57°31' E 011°21'510.5
2017-Nov-24 21:30N 57°27' E 011°27'611.3
2017-Nov-24 21:01N 57°22' E 011°30'611.6
2017-Nov-24 20:30N 57°16' E 011°34'611.8
2017-Nov-24 20:00N 57°11' E 011°37'711.8
2017-Nov-24 19:25N 57°04' E 011°41'511.7
2017-Nov-24 19:00N 56°60' E 011°44'611.8
2017-Nov-24 18:28N 56°54' E 011°48'  

Dump ship's entire track history